sensor_id;sensor_type;location;lat;lon;timestamp;temperature;humidity
48454;DHT22;34261;55.678;12.464;2023-05-10T00:00:50;13.00;91.90
48454;DHT22;34261;55.678;12.464;2023-05-10T00:03:16;13.10;92.00
48454;DHT22;34261;55.678;12.464;2023-05-10T00:05:41;13.00;91.90
48454;DHT22;34261;55.678;12.464;2023-05-10T00:08:07;13.00;91.80
48454;DHT22;34261;55.678;12.464;2023-05-10T00:10:32;13.00;91.70
48454;DHT22;34261;55.678;12.464;2023-05-10T00:12:58;13.00;91.60
48454;DHT22;34261;55.678;12.464;2023-05-10T00:15:23;13.10;91.40
48454;DHT22;34261;55.678;12.464;2023-05-10T00:17:49;13.10;91.50
48454;DHT22;34261;55.678;12.464;2023-05-10T00:20:14;13.10;91.30
48454;DHT22;34261;55.678;12.464;2023-05-10T00:22:40;13.00;91.40
48454;DHT22;34261;55.678;12.464;2023-05-10T00:25:06;13.10;91.30
48454;DHT22;34261;55.678;12.464;2023-05-10T00:27:31;13.10;91.20
48454;DHT22;34261;55.678;12.464;2023-05-10T00:29:57;13.10;91.00
48454;DHT22;34261;55.678;12.464;2023-05-10T00:32:22;13.10;91.10
48454;DHT22;34261;55.678;12.464;2023-05-10T00:34:48;13.10;90.90
48454;DHT22;34261;55.678;12.464;2023-05-10T00:37:13;13.10;91.10
48454;DHT22;34261;55.678;12.464;2023-05-10T00:39:39;13.10;91.10
48454;DHT22;34261;55.678;12.464;2023-05-10T00:42:04;13.10;91.00
48454;DHT22;34261;55.678;12.464;2023-05-10T00:44:30;13.10;91.10
48454;DHT22;34261;55.678;12.464;2023-05-10T00:46:56;13.10;91.10
48454;DHT22;34261;55.678;12.464;2023-05-10T00:49:22;13.10;91.10
48454;DHT22;34261;55.678;12.464;2023-05-10T00:51:48;13.10;91.00
48454;DHT22;34261;55.678;12.464;2023-05-10T00:54:14;13.10;91.00
48454;DHT22;34261;55.678;12.464;2023-05-10T00:56:40;13.10;91.00
48454;DHT22;34261;55.678;12.464;2023-05-10T00:59:05;13.00;91.00
48454;DHT22;34261;55.678;12.464;2023-05-10T01:01:31;13.10;91.10
48454;DHT22;34261;55.678;12.464;2023-05-10T01:03:57;13.10;91.10
48454;DHT22;34261;55.678;12.464;2023-05-10T01:06:23;13.00;91.10
48454;DHT22;34261;55.678;12.464;2023-05-10T01:08:48;13.00;91.20
48454;DHT22;34261;55.678;12.464;2023-05-10T01:11:14;13.00;91.50
48454;DHT22;34261;55.678;12.464;2023-05-10T01:13:41;13.00;91.30
48454;DHT22;34261;55.678;12.464;2023-05-10T01:16:07;13.00;91.20
48454;DHT22;34261;55.678;12.464;2023-05-10T01:18:33;13.00;91.30
48454;DHT22;34261;55.678;12.464;2023-05-10T01:21:13;13.00;91.30
48454;DHT22;34261;55.678;12.464;2023-05-10T01:34:16;12.90;91.60
48454;DHT22;34261;55.678;12.464;2023-05-10T01:36:47;12.80;91.40
48454;DHT22;34261;55.678;12.464;2023-05-10T01:41:41;12.80;91.50
48454;DHT22;34261;55.678;12.464;2023-05-10T01:46:39;12.80;91.60
48454;DHT22;34261;55.678;12.464;2023-05-10T01:49:08;12.80;91.50
48454;DHT22;34261;55.678;12.464;2023-05-10T01:51:48;12.80;91.40
48454;DHT22;34261;55.678;12.464;2023-05-10T01:54:17;12.80;91.40
48454;DHT22;34261;55.678;12.464;2023-05-10T01:56:44;12.70;91.50
48454;DHT22;34261;55.678;12.464;2023-05-10T01:59:12;12.80;91.50
48454;DHT22;34261;55.678;12.464;2023-05-10T02:01:39;12.70;91.60
48454;DHT22;34261;55.678;12.464;2023-05-10T02:04:06;12.70;91.40
48454;DHT22;34261;55.678;12.464;2023-05-10T02:06:32;12.70;91.50
48454;DHT22;34261;55.678;12.464;2023-05-10T02:08:58;12.70;91.50
48454;DHT22;34261;55.678;12.464;2023-05-10T02:11:25;12.70;91.60
48454;DHT22;34261;55.678;12.464;2023-05-10T02:13:52;12.70;91.60
48454;DHT22;34261;55.678;12.464;2023-05-10T02:16:18;12.70;91.60
48454;DHT22;34261;55.678;12.464;2023-05-10T02:18:46;12.70;91.60
48454;DHT22;34261;55.678;12.464;2023-05-10T02:21:12;12.60;91.70
48454;DHT22;34261;55.678;12.464;2023-05-10T02:23:38;12.60;91.70
48454;DHT22;34261;55.678;12.464;2023-05-10T02:26:04;12.60;91.80
48454;DHT22;34261;55.678;12.464;2023-05-10T02:28:31;12.60;91.80
48454;DHT22;34261;55.678;12.464;2023-05-10T02:30:57;12.60;91.90
48454;DHT22;34261;55.678;12.464;2023-05-10T02:33:23;12.50;91.90
48454;DHT22;34261;55.678;12.464;2023-05-10T02:35:50;12.50;91.80
48454;DHT22;34261;55.678;12.464;2023-05-10T02:38:15;12.50;91.90
48454;DHT22;34261;55.678;12.464;2023-05-10T02:40:41;12.50;91.80
48454;DHT22;34261;55.678;12.464;2023-05-10T02:43:09;12.50;91.80
48454;DHT22;34261;55.678;12.464;2023-05-10T02:45:37;12.50;91.90
48454;DHT22;34261;55.678;12.464;2023-05-10T02:48:04;12.50;91.80
48454;DHT22;34261;55.678;12.464;2023-05-10T02:50:30;12.50;91.90
48454;DHT22;34261;55.678;12.464;2023-05-10T02:52:59;12.50;91.90
48454;DHT22;34261;55.678;12.464;2023-05-10T02:55:26;12.40;92.10
48454;DHT22;34261;55.678;12.464;2023-05-10T02:57:54;12.40;92.10
48454;DHT22;34261;55.678;12.464;2023-05-10T03:00:21;12.40;92.20
48454;DHT22;34261;55.678;12.464;2023-05-10T03:02:47;12.40;92.10
48454;DHT22;34261;55.678;12.464;2023-05-10T03:05:12;12.40;92.40
48454;DHT22;34261;55.678;12.464;2023-05-10T03:07:38;12.40;92.30
48454;DHT22;34261;55.678;12.464;2023-05-10T03:10:04;12.30;92.20
48454;DHT22;34261;55.678;12.464;2023-05-10T03:15:18;12.30;92.30
48454;DHT22;34261;55.678;12.464;2023-05-10T03:17:46;12.30;92.30
48454;DHT22;34261;55.678;12.464;2023-05-10T03:20:16;12.30;92.40
48454;DHT22;34261;55.678;12.464;2023-05-10T03:22:47;12.30;92.40
48454;DHT22;34261;55.678;12.464;2023-05-10T03:25:13;12.30;92.50
48454;DHT22;34261;55.678;12.464;2023-05-10T03:27:41;12.30;92.40
48454;DHT22;34261;55.678;12.464;2023-05-10T03:30:08;12.20;92.50
48454;DHT22;34261;55.678;12.464;2023-05-10T03:32:35;12.30;92.50
48454;DHT22;34261;55.678;12.464;2023-05-10T03:35:06;12.30;92.50
48454;DHT22;34261;55.678;12.464;2023-05-10T03:37:31;12.30;92.60
48454;DHT22;34261;55.678;12.464;2023-05-10T03:39:56;12.30;92.70
48454;DHT22;34261;55.678;12.464;2023-05-10T03:42:22;12.30;92.70
48454;DHT22;34261;55.678;12.464;2023-05-10T03:44:47;12.40;92.70
48454;DHT22;34261;55.678;12.464;2023-05-10T03:47:14;12.30;92.70
48454;DHT22;34261;55.678;12.464;2023-05-10T03:49:40;12.30;92.80
48454;DHT22;34261;55.678;12.464;2023-05-10T03:52:05;12.30;92.70
48454;DHT22;34261;55.678;12.464;2023-05-10T03:54:31;12.40;92.80
48454;DHT22;34261;55.678;12.464;2023-05-10T03:56:57;12.30;92.70
48454;DHT22;34261;55.678;12.464;2023-05-10T03:59:22;12.40;92.90
48454;DHT22;34261;55.678;12.464;2023-05-10T04:01:48;12.40;92.90
48454;DHT22;34261;55.678;12.464;2023-05-10T04:04:13;12.40;92.90
48454;DHT22;34261;55.678;12.464;2023-05-10T04:06:39;12.40;93.00
48454;DHT22;34261;55.678;12.464;2023-05-10T04:09:04;12.40;93.00
48454;DHT22;34261;55.678;12.464;2023-05-10T04:11:30;12.40;93.00
48454;DHT22;34261;55.678;12.464;2023-05-10T04:13:55;12.50;93.00
48454;DHT22;34261;55.678;12.464;2023-05-10T04:16:20;12.50;93.00
48454;DHT22;34261;55.678;12.464;2023-05-10T04:18:46;12.50;93.40
48454;DHT22;34261;55.678;12.464;2023-05-10T04:21:12;12.60;93.20
48454;DHT22;34261;55.678;12.464;2023-05-10T04:23:38;12.50;93.10
48454;DHT22;34261;55.678;12.464;2023-05-10T04:26:03;12.60;93.20
48454;DHT22;34261;55.678;12.464;2023-05-10T04:28:29;12.60;93.00
48454;DHT22;34261;55.678;12.464;2023-05-10T04:31:01;12.70;93.10
48454;DHT22;34261;55.678;12.464;2023-05-10T04:33:27;12.70;93.10
48454;DHT22;34261;55.678;12.464;2023-05-10T04:35:53;12.70;93.10
48454;DHT22;34261;55.678;12.464;2023-05-10T04:38:18;12.70;93.20
48454;DHT22;34261;55.678;12.464;2023-05-10T04:40:43;12.70;93.10
48454;DHT22;34261;55.678;12.464;2023-05-10T04:43:09;12.70;93.10
48454;DHT22;34261;55.678;12.464;2023-05-10T04:45:34;12.70;93.10
48454;DHT22;34261;55.678;12.464;2023-05-10T04:48:00;12.70;93.20
48454;DHT22;34261;55.678;12.464;2023-05-10T04:50:25;12.70;93.20
48454;DHT22;34261;55.678;12.464;2023-05-10T04:52:51;12.70;93.30
48454;DHT22;34261;55.678;12.464;2023-05-10T04:55:16;12.70;93.40
48454;DHT22;34261;55.678;12.464;2023-05-10T04:57:42;12.80;93.50
48454;DHT22;34261;55.678;12.464;2023-05-10T05:00:07;12.80;93.10
48454;DHT22;34261;55.678;12.464;2023-05-10T05:02:33;12.80;93.30
48454;DHT22;34261;55.678;12.464;2023-05-10T05:04:58;12.90;93.40
48454;DHT22;34261;55.678;12.464;2023-05-10T05:07:24;12.90;93.20
48454;DHT22;34261;55.678;12.464;2023-05-10T05:09:49;12.90;93.20
48454;DHT22;34261;55.678;12.464;2023-05-10T05:12:15;12.90;93.30
48454;DHT22;34261;55.678;12.464;2023-05-10T05:14:40;12.90;93.30
48454;DHT22;34261;55.678;12.464;2023-05-10T05:17:06;13.00;93.40
48454;DHT22;34261;55.678;12.464;2023-05-10T05:19:32;13.00;93.20
48454;DHT22;34261;55.678;12.464;2023-05-10T05:21:58;13.00;93.20
48454;DHT22;34261;55.678;12.464;2023-05-10T05:24:24;13.00;93.30
48454;DHT22;34261;55.678;12.464;2023-05-10T05:26:49;13.00;93.20
48454;DHT22;34261;55.678;12.464;2023-05-10T05:29:15;13.10;93.20
48454;DHT22;34261;55.678;12.464;2023-05-10T05:31:41;13.10;93.20
48454;DHT22;34261;55.678;12.464;2023-05-10T05:34:07;13.20;93.20
48454;DHT22;34261;55.678;12.464;2023-05-10T05:36:35;13.20;93.20
48454;DHT22;34261;55.678;12.464;2023-05-10T05:39:01;13.30;93.20
48454;DHT22;34261;55.678;12.464;2023-05-10T05:41:26;13.30;93.00
48454;DHT22;34261;55.678;12.464;2023-05-10T05:43:52;13.30;93.00
48454;DHT22;34261;55.678;12.464;2023-05-10T05:46:17;13.40;93.00
48454;DHT22;34261;55.678;12.464;2023-05-10T05:48:42;13.40;92.90
48454;DHT22;34261;55.678;12.464;2023-05-10T05:51:08;13.40;92.90
48454;DHT22;34261;55.678;12.464;2023-05-10T05:53:34;13.40;92.90
48454;DHT22;34261;55.678;12.464;2023-05-10T05:56:01;13.50;92.80
48454;DHT22;34261;55.678;12.464;2023-05-10T05:58:26;13.50;92.70
48454;DHT22;34261;55.678;12.464;2023-05-10T06:00:53;13.60;92.80
48454;DHT22;34261;55.678;12.464;2023-05-10T06:03:19;13.70;92.70
48454;DHT22;34261;55.678;12.464;2023-05-10T06:05:44;13.80;92.60
48454;DHT22;34261;55.678;12.464;2023-05-10T06:08:10;13.70;92.40
48454;DHT22;34261;55.678;12.464;2023-05-10T06:10:36;13.70;92.50
48454;DHT22;34261;55.678;12.464;2023-05-10T06:13:01;13.70;92.40
48454;DHT22;34261;55.678;12.464;2023-05-10T06:15:27;13.80;92.40
48454;DHT22;34261;55.678;12.464;2023-05-10T06:17:52;13.80;92.40
48454;DHT22;34261;55.678;12.464;2023-05-10T06:20:18;13.70;92.20
48454;DHT22;34261;55.678;12.464;2023-05-10T06:22:43;13.70;92.50
48454;DHT22;34261;55.678;12.464;2023-05-10T06:25:09;13.80;92.50
48454;DHT22;34261;55.678;12.464;2023-05-10T06:27:35;13.90;92.30
48454;DHT22;34261;55.678;12.464;2023-05-10T06:30:00;14.00;92.60
48454;DHT22;34261;55.678;12.464;2023-05-10T06:32:25;14.10;91.90
48454;DHT22;34261;55.678;12.464;2023-05-10T06:34:51;14.10;91.80
48454;DHT22;34261;55.678;12.464;2023-05-10T06:37:17;14.10;91.70
48454;DHT22;34261;55.678;12.464;2023-05-10T06:39:44;14.10;91.80
48454;DHT22;34261;55.678;12.464;2023-05-10T06:42:09;14.10;91.70
48454;DHT22;34261;55.678;12.464;2023-05-10T06:44:34;14.20;91.90
48454;DHT22;34261;55.678;12.464;2023-05-10T06:47:00;14.30;91.70
48454;DHT22;34261;55.678;12.464;2023-05-10T06:49:25;14.30;91.50
48454;DHT22;34261;55.678;12.464;2023-05-10T06:51:51;14.30;91.70
48454;DHT22;34261;55.678;12.464;2023-05-10T06:54:17;14.40;91.70
48454;DHT22;34261;55.678;12.464;2023-05-10T06:56:43;14.40;91.20
48454;DHT22;34261;55.678;12.464;2023-05-10T06:59:08;14.40;91.50
48454;DHT22;34261;55.678;12.464;2023-05-10T07:01:33;14.40;91.20
48454;DHT22;34261;55.678;12.464;2023-05-10T07:04:02;14.50;91.10
48454;DHT22;34261;55.678;12.464;2023-05-10T07:06:27;14.50;91.10
48454;DHT22;34261;55.678;12.464;2023-05-10T07:08:53;14.60;91.10
48454;DHT22;34261;55.678;12.464;2023-05-10T07:11:18;14.80;91.00
48454;DHT22;34261;55.678;12.464;2023-05-10T07:13:43;14.90;90.80
48454;DHT22;34261;55.678;12.464;2023-05-10T07:16:11;15.00;90.70
48454;DHT22;34261;55.678;12.464;2023-05-10T07:18:36;15.00;90.60
48454;DHT22;34261;55.678;12.464;2023-05-10T07:21:02;15.10;90.60
48454;DHT22;34261;55.678;12.464;2023-05-10T07:23:28;15.00;90.30
48454;DHT22;34261;55.678;12.464;2023-05-10T07:25:53;15.00;90.30
48454;DHT22;34261;55.678;12.464;2023-05-10T07:28:19;15.10;90.60
48454;DHT22;34261;55.678;12.464;2023-05-10T07:30:44;15.30;90.50
48454;DHT22;34261;55.678;12.464;2023-05-10T07:33:10;15.30;90.00
48454;DHT22;34261;55.678;12.464;2023-05-10T07:35:36;15.30;89.90
48454;DHT22;34261;55.678;12.464;2023-05-10T07:38:02;15.40;90.20
48454;DHT22;34261;55.678;12.464;2023-05-10T07:40:27;15.50;90.20
48454;DHT22;34261;55.678;12.464;2023-05-10T07:42:54;15.60;89.40
48454;DHT22;34261;55.678;12.464;2023-05-10T07:45:20;15.60;89.70
48454;DHT22;34261;55.678;12.464;2023-05-10T07:47:45;15.80;89.50
48454;DHT22;34261;55.678;12.464;2023-05-10T07:50:11;15.90;88.50
48454;DHT22;34261;55.678;12.464;2023-05-10T07:52:36;16.00;89.20
48454;DHT22;34261;55.678;12.464;2023-05-10T07:55:01;16.10;87.40
48454;DHT22;34261;55.678;12.464;2023-05-10T07:57:27;16.10;87.30
48454;DHT22;34261;55.678;12.464;2023-05-10T07:59:53;16.30;88.30
48454;DHT22;34261;55.678;12.464;2023-05-10T08:02:18;16.50;87.30
48454;DHT22;34261;55.678;12.464;2023-05-10T08:04:44;16.50;86.70
48454;DHT22;34261;55.678;12.464;2023-05-10T08:07:09;16.70;87.50
48454;DHT22;34261;55.678;12.464;2023-05-10T08:09:35;16.90;87.00
48454;DHT22;34261;55.678;12.464;2023-05-10T08:12:01;16.90;86.10
48454;DHT22;34261;55.678;12.464;2023-05-10T08:14:28;16.90;85.60
48454;DHT22;34261;55.678;12.464;2023-05-10T08:16:53;16.80;85.50
48454;DHT22;34261;55.678;12.464;2023-05-10T08:19:19;16.90;86.30
48454;DHT22;34261;55.678;12.464;2023-05-10T08:21:46;17.10;84.90
48454;DHT22;34261;55.678;12.464;2023-05-10T08:24:12;17.00;84.80
48454;DHT22;34261;55.678;12.464;2023-05-10T08:26:37;17.10;84.40
48454;DHT22;34261;55.678;12.464;2023-05-10T08:29:03;17.30;85.00
48454;DHT22;34261;55.678;12.464;2023-05-10T08:31:28;17.40;83.30
48454;DHT22;34261;55.678;12.464;2023-05-10T08:33:55;17.30;83.60
48454;DHT22;34261;55.678;12.464;2023-05-10T08:36:21;17.30;83.10
48454;DHT22;34261;55.678;12.464;2023-05-10T08:38:49;17.30;83.80
48454;DHT22;34261;55.678;12.464;2023-05-10T08:41:16;17.40;83.70
48454;DHT22;34261;55.678;12.464;2023-05-10T08:43:42;17.60;83.80
48454;DHT22;34261;55.678;12.464;2023-05-10T08:46:11;17.70;83.20
48454;DHT22;34261;55.678;12.464;2023-05-10T08:48:38;18.00;82.90
48454;DHT22;34261;55.678;12.464;2023-05-10T08:51:04;18.20;82.60
48454;DHT22;34261;55.678;12.464;2023-05-10T08:53:31;18.30;82.50
48454;DHT22;34261;55.678;12.464;2023-05-10T08:55:57;18.30;81.70
48454;DHT22;34261;55.678;12.464;2023-05-10T08:58:23;18.40;82.20
48454;DHT22;34261;55.678;12.464;2023-05-10T09:00:49;18.30;81.70
48454;DHT22;34261;55.678;12.464;2023-05-10T09:03:18;18.40;82.50
48454;DHT22;34261;55.678;12.464;2023-05-10T09:05:44;18.50;82.60
48454;DHT22;34261;55.678;12.464;2023-05-10T09:08:10;18.70;82.50
48454;DHT22;34261;55.678;12.464;2023-05-10T09:10:38;18.70;80.70
48454;DHT22;34261;55.678;12.464;2023-05-10T09:13:03;18.80;81.30
48454;DHT22;34261;55.678;12.464;2023-05-10T09:15:29;18.80;81.60
48454;DHT22;34261;55.678;12.464;2023-05-10T09:17:54;19.00;82.10
48454;DHT22;34261;55.678;12.464;2023-05-10T09:20:20;19.40;82.30
48454;DHT22;34261;55.678;12.464;2023-05-10T09:22:46;19.70;81.20
48454;DHT22;34261;55.678;12.464;2023-05-10T09:25:12;19.70;79.90
48454;DHT22;34261;55.678;12.464;2023-05-10T09:27:38;19.80;80.20
48454;DHT22;34261;55.678;12.464;2023-05-10T09:30:06;19.80;80.00
48454;DHT22;34261;55.678;12.464;2023-05-10T09:32:42;19.80;78.80
48454;DHT22;34261;55.678;12.464;2023-05-10T09:37:36;19.90;78.70
48454;DHT22;34261;55.678;12.464;2023-05-10T09:40:04;20.00;79.40
48454;DHT22;34261;55.678;12.464;2023-05-10T09:42:29;20.20;79.20
48454;DHT22;34261;55.678;12.464;2023-05-10T09:44:59;20.30;78.70
48454;DHT22;34261;55.678;12.464;2023-05-10T09:47:25;20.50;78.20
48454;DHT22;34261;55.678;12.464;2023-05-10T09:49:52;20.70;78.80
48454;DHT22;34261;55.678;12.464;2023-05-10T09:52:19;21.00;79.70
48454;DHT22;34261;55.678;12.464;2023-05-10T09:54:51;21.10;77.60
48454;DHT22;34261;55.678;12.464;2023-05-10T09:57:20;20.90;76.40
48454;DHT22;34261;55.678;12.464;2023-05-10T09:59:47;20.70;77.90
48454;DHT22;34261;55.678;12.464;2023-05-10T10:02:12;21.00;77.60
48454;DHT22;34261;55.678;12.464;2023-05-10T10:04:40;20.90;76.50
48454;DHT22;34261;55.678;12.464;2023-05-10T10:07:06;20.60;76.50
48454;DHT22;34261;55.678;12.464;2023-05-10T10:09:33;20.70;78.50
48454;DHT22;34261;55.678;12.464;2023-05-10T10:11:59;21.00;77.00
48454;DHT22;34261;55.678;12.464;2023-05-10T10:14:25;21.00;76.90
48454;DHT22;34261;55.678;12.464;2023-05-10T10:16:51;21.10;76.70
48454;DHT22;34261;55.678;12.464;2023-05-10T10:19:18;21.40;76.60
48454;DHT22;34261;55.678;12.464;2023-05-10T10:21:43;21.40;76.50
48454;DHT22;34261;55.678;12.464;2023-05-10T10:24:10;21.40;75.60
48454;DHT22;34261;55.678;12.464;2023-05-10T10:26:36;21.20;75.90
48454;DHT22;34261;55.678;12.464;2023-05-10T10:29:12;21.40;76.70
48454;DHT22;34261;55.678;12.464;2023-05-10T10:31:46;21.70;76.80
48454;DHT22;34261;55.678;12.464;2023-05-10T10:34:22;21.80;75.80
48454;DHT22;34261;55.678;12.464;2023-05-10T10:36:50;22.00;75.60
48454;DHT22;34261;55.678;12.464;2023-05-10T10:39:17;21.80;73.50
48454;DHT22;34261;55.678;12.464;2023-05-10T10:41:53;21.50;74.00
48454;DHT22;34261;55.678;12.464;2023-05-10T10:49:38;21.70;76.00
48454;DHT22;34261;55.678;12.464;2023-05-10T10:55:12;21.10;73.60
48454;DHT22;34261;55.678;12.464;2023-05-10T11:00:19;21.40;75.20
48454;DHT22;34261;55.678;12.464;2023-05-10T11:02:55;21.70;75.10
48454;DHT22;34261;55.678;12.464;2023-05-10T11:08:16;21.70;73.20
48454;DHT22;34261;55.678;12.464;2023-05-10T11:13:27;22.00;74.10
48454;DHT22;34261;55.678;12.464;2023-05-10T11:15:52;22.10;73.60
48454;DHT22;34261;55.678;12.464;2023-05-10T11:18:25;22.10;72.90
48454;DHT22;34261;55.678;12.464;2023-05-10T11:20:52;22.20;73.00
48454;DHT22;34261;55.678;12.464;2023-05-10T11:23:21;22.40;73.10
48454;DHT22;34261;55.678;12.464;2023-05-10T11:25:50;22.70;72.30
48454;DHT22;34261;55.678;12.464;2023-05-10T11:28:19;22.50;71.60
48454;DHT22;34261;55.678;12.464;2023-05-10T11:30:44;22.70;72.10
48454;DHT22;34261;55.678;12.464;2023-05-10T11:33:17;22.80;71.60
48454;DHT22;34261;55.678;12.464;2023-05-10T11:35:43;22.80;72.00
48454;DHT22;34261;55.678;12.464;2023-05-10T11:38:09;22.90;71.60
48454;DHT22;34261;55.678;12.464;2023-05-10T11:40:35;22.70;71.80
48454;DHT22;34261;55.678;12.464;2023-05-10T11:43:01;22.90;72.10
48454;DHT22;34261;55.678;12.464;2023-05-10T11:45:28;23.00;72.00
48454;DHT22;34261;55.678;12.464;2023-05-10T11:47:58;22.90;71.00
48454;DHT22;34261;55.678;12.464;2023-05-10T11:50:24;23.20;71.40
48454;DHT22;34261;55.678;12.464;2023-05-10T11:52:52;23.30;71.20
48454;DHT22;34261;55.678;12.464;2023-05-10T11:55:17;23.40;71.80
48454;DHT22;34261;55.678;12.464;2023-05-10T11:57:43;23.50;71.30
48454;DHT22;34261;55.678;12.464;2023-05-10T12:00:11;23.60;70.60
48454;DHT22;34261;55.678;12.464;2023-05-10T12:02:37;23.30;70.50
48454;DHT22;34261;55.678;12.464;2023-05-10T12:05:03;23.50;71.10
48454;DHT22;34261;55.678;12.464;2023-05-10T12:07:31;23.50;70.70
48454;DHT22;34261;55.678;12.464;2023-05-10T12:12:35;23.60;70.40
48454;DHT22;34261;55.678;12.464;2023-05-10T12:15:01;23.60;70.80
48454;DHT22;34261;55.678;12.464;2023-05-10T12:17:28;23.60;70.40
48454;DHT22;34261;55.678;12.464;2023-05-10T12:19:56;23.60;70.30
48454;DHT22;34261;55.678;12.464;2023-05-10T12:22:25;23.50;70.30
48454;DHT22;34261;55.678;12.464;2023-05-10T12:24:50;23.60;70.00
48454;DHT22;34261;55.678;12.464;2023-05-10T12:27:17;23.40;69.50
48454;DHT22;34261;55.678;12.464;2023-05-10T12:29:42;23.40;70.10
48454;DHT22;34261;55.678;12.464;2023-05-10T12:32:09;23.50;70.30
48454;DHT22;34261;55.678;12.464;2023-05-10T12:34:35;23.50;71.30
48454;DHT22;34261;55.678;12.464;2023-05-10T12:37:05;23.60;69.90
48454;DHT22;34261;55.678;12.464;2023-05-10T12:39:38;23.70;70.00
48454;DHT22;34261;55.678;12.464;2023-05-10T12:42:03;23.80;70.00
48454;DHT22;34261;55.678;12.464;2023-05-10T12:44:29;24.00;69.70
48454;DHT22;34261;55.678;12.464;2023-05-10T12:46:54;24.20;69.60
48454;DHT22;34261;55.678;12.464;2023-05-10T12:49:21;24.60;68.90
48454;DHT22;34261;55.678;12.464;2023-05-10T12:51:47;24.80;69.00
48454;DHT22;34261;55.678;12.464;2023-05-10T12:54:12;24.80;68.60
48454;DHT22;34261;55.678;12.464;2023-05-10T12:56:38;24.80;68.40
48454;DHT22;34261;55.678;12.464;2023-05-10T12:59:04;24.60;69.20
48454;DHT22;34261;55.678;12.464;2023-05-10T13:01:30;24.60;68.00
48454;DHT22;34261;55.678;12.464;2023-05-10T13:03:55;24.40;68.50
48454;DHT22;34261;55.678;12.464;2023-05-10T13:06:21;24.50;69.10
48454;DHT22;34261;55.678;12.464;2023-05-10T13:08:49;24.40;68.30
48454;DHT22;34261;55.678;12.464;2023-05-10T13:11:15;24.10;68.00
48454;DHT22;34261;55.678;12.464;2023-05-10T13:13:44;24.20;68.30
48454;DHT22;34261;55.678;12.464;2023-05-10T13:16:09;24.20;68.50
48454;DHT22;34261;55.678;12.464;2023-05-10T13:18:35;24.40;68.40
48454;DHT22;34261;55.678;12.464;2023-05-10T13:21:00;24.50;68.50
48454;DHT22;34261;55.678;12.464;2023-05-10T13:23:27;24.60;68.20
48454;DHT22;34261;55.678;12.464;2023-05-10T13:25:52;24.80;67.60
48454;DHT22;34261;55.678;12.464;2023-05-10T13:28:18;25.10;69.60
48454;DHT22;34261;55.678;12.464;2023-05-10T13:30:43;25.10;67.30
48454;DHT22;34261;55.678;12.464;2023-05-10T13:33:09;25.20;66.90
48454;DHT22;34261;55.678;12.464;2023-05-10T13:35:35;25.10;67.30
48454;DHT22;34261;55.678;12.464;2023-05-10T13:38:01;25.10;66.60
48454;DHT22;34261;55.678;12.464;2023-05-10T13:40:27;24.80;66.30
48454;DHT22;34261;55.678;12.464;2023-05-10T13:42:53;24.80;66.30
48454;DHT22;34261;55.678;12.464;2023-05-10T13:45:22;24.90;66.70
48454;DHT22;34261;55.678;12.464;2023-05-10T13:47:47;24.80;67.20
48454;DHT22;34261;55.678;12.464;2023-05-10T13:50:14;24.70;67.20
48454;DHT22;34261;55.678;12.464;2023-05-10T13:52:39;24.70;67.20
48454;DHT22;34261;55.678;12.464;2023-05-10T13:55:05;24.60;66.30
48454;DHT22;34261;55.678;12.464;2023-05-10T13:57:30;24.90;67.50
48454;DHT22;34261;55.678;12.464;2023-05-10T13:59:56;24.90;66.30
48454;DHT22;34261;55.678;12.464;2023-05-10T14:02:22;24.70;67.50
48454;DHT22;34261;55.678;12.464;2023-05-10T14:04:49;25.00;67.40
48454;DHT22;34261;55.678;12.464;2023-05-10T14:07:14;25.10;66.50
48454;DHT22;34261;55.678;12.464;2023-05-10T14:09:43;24.80;66.00
48454;DHT22;34261;55.678;12.464;2023-05-10T14:12:09;24.80;66.10
48454;DHT22;34261;55.678;12.464;2023-05-10T14:14:34;25.00;66.40
48454;DHT22;34261;55.678;12.464;2023-05-10T14:17:01;25.00;66.10
48454;DHT22;34261;55.678;12.464;2023-05-10T14:19:28;25.20;66.60
48454;DHT22;34261;55.678;12.464;2023-05-10T14:21:56;25.20;65.30
48454;DHT22;34261;55.678;12.464;2023-05-10T14:24:22;25.30;65.80
48454;DHT22;34261;55.678;12.464;2023-05-10T14:26:47;25.30;65.80
48454;DHT22;34261;55.678;12.464;2023-05-10T14:29:13;25.40;65.40
48454;DHT22;34261;55.678;12.464;2023-05-10T14:31:39;25.30;65.70
48454;DHT22;34261;55.678;12.464;2023-05-10T14:34:05;25.30;65.50
48454;DHT22;34261;55.678;12.464;2023-05-10T14:36:31;25.30;65.70
48454;DHT22;34261;55.678;12.464;2023-05-10T14:38:56;25.50;65.80
48454;DHT22;34261;55.678;12.464;2023-05-10T14:41:22;25.30;64.90
48454;DHT22;34261;55.678;12.464;2023-05-10T14:43:49;25.10;65.30
48454;DHT22;34261;55.678;12.464;2023-05-10T14:46:15;24.90;65.00
48454;DHT22;34261;55.678;12.464;2023-05-10T14:48:43;24.80;65.50
48454;DHT22;34261;55.678;12.464;2023-05-10T14:51:08;24.90;65.20
48454;DHT22;34261;55.678;12.464;2023-05-10T14:53:46;25.00;64.70
48454;DHT22;34261;55.678;12.464;2023-05-10T14:56:35;25.10;65.80
48454;DHT22;34261;55.678;12.464;2023-05-10T14:59:22;25.20;65.60
48454;DHT22;34261;55.678;12.464;2023-05-10T15:01:59;25.10;64.60
48454;DHT22;34261;55.678;12.464;2023-05-10T15:04:25;24.80;65.40
48454;DHT22;34261;55.678;12.464;2023-05-10T15:06:54;24.60;65.00
48454;DHT22;34261;55.678;12.464;2023-05-10T15:09:44;24.70;65.40
48454;DHT22;34261;55.678;12.464;2023-05-10T15:12:12;24.60;65.40
48454;DHT22;34261;55.678;12.464;2023-05-10T15:14:53;24.70;65.50
48454;DHT22;34261;55.678;12.464;2023-05-10T15:17:30;25.00;65.60
48454;DHT22;34261;55.678;12.464;2023-05-10T15:23:21;24.80;65.20
48454;DHT22;34261;55.678;12.464;2023-05-10T15:25:50;24.60;65.70
48454;DHT22;34261;55.678;12.464;2023-05-10T18:11:24;19.00;75.20
48454;DHT22;34261;55.678;12.464;2023-05-10T18:13:53;19.00;75.40
48454;DHT22;34261;55.678;12.464;2023-05-10T18:16:22;18.90;75.60
48454;DHT22;34261;55.678;12.464;2023-05-10T18:18:47;18.90;75.60
48454;DHT22;34261;55.678;12.464;2023-05-10T18:21:16;18.90;75.60
48454;DHT22;34261;55.678;12.464;2023-05-10T18:23:42;18.80;75.90
48454;DHT22;34261;55.678;12.464;2023-05-10T18:26:27;18.70;75.60
48454;DHT22;34261;55.678;12.464;2023-05-10T18:28:53;18.60;76.00
48454;DHT22;34261;55.678;12.464;2023-05-10T18:31:21;18.60;76.00
48454;DHT22;34261;55.678;12.464;2023-05-10T18:33:47;18.60;76.10
48454;DHT22;34261;55.678;12.464;2023-05-10T18:36:13;18.50;76.20
48454;DHT22;34261;55.678;12.464;2023-05-10T18:38:39;18.40;76.40